sensor_id;sensor_type;location;lat;lon;timestamp;temperature;humidity
418;DHT22;49;48.530;9.200;2022-09-03T00:01:09;23.40;27.50
418;DHT22;49;48.530;9.200;2022-09-03T00:03:44;23.50;26.50
418;DHT22;49;48.530;9.200;2022-09-03T00:06:14;23.60;26.90
418;DHT22;49;48.530;9.200;2022-09-03T00:08:49;23.70;26.60
418;DHT22;49;48.530;9.200;2022-09-03T00:11:21;23.90;26.80
418;DHT22;49;48.530;9.200;2022-09-03T00:13:58;24.00;26.80
418;DHT22;49;48.530;9.200;2022-09-03T00:16:30;24.00;26.80
418;DHT22;49;48.530;9.200;2022-09-03T00:19:01;24.10;25.90
418;DHT22;49;48.530;9.200;2022-09-03T00:21:35;24.00;26.10
418;DHT22;49;48.530;9.200;2022-09-03T00:24:07;24.00;26.90
418;DHT22;49;48.530;9.200;2022-09-03T00:26:36;24.10;26.10
418;DHT22;49;48.530;9.200;2022-09-03T00:29:11;24.10;25.50
418;DHT22;49;48.530;9.200;2022-09-03T00:31:44;24.00;24.80
418;DHT22;49;48.530;9.200;2022-09-03T00:34:15;24.00;25.40
418;DHT22;49;48.530;9.200;2022-09-03T00:36:45;23.90;25.90
418;DHT22;49;48.530;9.200;2022-09-03T00:39:15;23.80;25.90
418;DHT22;49;48.530;9.200;2022-09-03T00:41:52;23.60;26.50
418;DHT22;49;48.530;9.200;2022-09-03T00:44:35;23.60;26.50
418;DHT22;49;48.530;9.200;2022-09-03T00:47:10;23.60;25.90
418;DHT22;49;48.530;9.200;2022-09-03T00:49:49;23.50;24.60
418;DHT22;49;48.530;9.200;2022-09-03T00:52:38;23.10;25.00
418;DHT22;49;48.530;9.200;2022-09-03T00:55:21;22.60;25.80
418;DHT22;49;48.530;9.200;2022-09-03T00:57:57;22.80;26.00
418;DHT22;49;48.530;9.200;2022-09-03T01:00:26;22.80;26.00
418;DHT22;49;48.530;9.200;2022-09-03T01:03:03;23.10;25.90
418;DHT22;49;48.530;9.200;2022-09-03T01:05:52;23.40;26.40
418;DHT22;49;48.530;9.200;2022-09-03T01:08:44;23.60;24.60
418;DHT22;49;48.530;9.200;2022-09-03T01:11:26;23.80;26.70
418;DHT22;49;48.530;9.200;2022-09-03T01:14:02;23.90;24.60
418;DHT22;49;48.530;9.200;2022-09-03T01:16:38;23.90;24.10
418;DHT22;49;48.530;9.200;2022-09-03T01:19:19;23.90;24.50
418;DHT22;49;48.530;9.200;2022-09-03T01:22:11;24.10;26.10
418;DHT22;49;48.530;9.200;2022-09-03T01:25:02;24.10;25.30
418;DHT22;49;48.530;9.200;2022-09-03T01:27:42;24.10;25.80
418;DHT22;49;48.530;9.200;2022-09-03T01:30:14;24.10;25.90
418;DHT22;49;48.530;9.200;2022-09-03T01:32:47;24.20;25.80
418;DHT22;49;48.530;9.200;2022-09-03T01:35:26;24.00;26.00
418;DHT22;49;48.530;9.200;2022-09-03T01:38:11;24.10;25.40
418;DHT22;49;48.530;9.200;2022-09-03T01:40:45;24.00;26.80
418;DHT22;49;48.530;9.200;2022-09-03T01:43:27;23.90;26.10
418;DHT22;49;48.530;9.200;2022-09-03T01:46:06;24.00;25.80
418;DHT22;49;48.530;9.200;2022-09-03T01:48:43;24.00;26.80
418;DHT22;49;48.530;9.200;2022-09-03T01:51:20;24.00;26.10
418;DHT22;49;48.530;9.200;2022-09-03T01:54:34;24.20;26.30
418;DHT22;49;48.530;9.200;2022-09-03T01:57:41;24.10;26.20
418;DHT22;49;48.530;9.200;2022-09-03T02:00:11;24.10;26.10
418;DHT22;49;48.530;9.200;2022-09-03T02:02:42;24.00;26.40
418;DHT22;49;48.530;9.200;2022-09-03T02:05:14;23.90;26.00
418;DHT22;49;48.530;9.200;2022-09-03T02:07:45;23.90;26.80
418;DHT22;49;48.530;9.200;2022-09-03T02:10:14;23.90;25.20
418;DHT22;49;48.530;9.200;2022-09-03T02:12:46;23.90;26.80
418;DHT22;49;48.530;9.200;2022-09-03T02:15:17;23.90;26.00
418;DHT22;49;48.530;9.200;2022-09-03T02:17:47;23.60;26.00
418;DHT22;49;48.530;9.200;2022-09-03T02:20:18;23.40;27.70
418;DHT22;49;48.530;9.200;2022-09-03T02:22:46;23.70;26.60
418;DHT22;49;48.530;9.200;2022-09-03T02:25:14;23.70;28.00
418;DHT22;49;48.530;9.200;2022-09-03T02:27:42;23.80;28.00
418;DHT22;49;48.530;9.200;2022-09-03T02:30:10;23.90;27.80
418;DHT22;49;48.530;9.200;2022-09-03T02:32:37;23.90;27.60
418;DHT22;49;48.530;9.200;2022-09-03T02:35:07;23.90;27.10
418;DHT22;49;48.530;9.200;2022-09-03T02:37:35;24.00;27.80
418;DHT22;49;48.530;9.200;2022-09-03T02:40:03;23.80;26.30
418;DHT22;49;48.530;9.200;2022-09-03T02:42:35;23.80;27.30
418;DHT22;49;48.530;9.200;2022-09-03T02:45:22;23.70;27.10
418;DHT22;49;48.530;9.200;2022-09-03T02:48:11;23.60;26.50
418;DHT22;49;48.530;9.200;2022-09-03T02:50:41;23.60;28.30
418;DHT22;49;48.530;9.200;2022-09-03T02:53:09;23.70;28.80
418;DHT22;49;48.530;9.200;2022-09-03T02:55:36;23.70;28.90
418;DHT22;49;48.530;9.200;2022-09-03T02:58:04;23.70;28.50
418;DHT22;49;48.530;9.200;2022-09-03T03:00:33;23.70;28.70
418;DHT22;49;48.530;9.200;2022-09-03T03:03:05;23.70;29.30
418;DHT22;49;48.530;9.200;2022-09-03T03:05:43;23.80;28.70
418;DHT22;49;48.530;9.200;2022-09-03T03:08:11;23.80;28.70
418;DHT22;49;48.530;9.200;2022-09-03T03:10:45;23.80;28.60
418;DHT22;49;48.530;9.200;2022-09-03T03:13:14;23.70;28.80
418;DHT22;49;48.530;9.200;2022-09-03T03:15:42;23.70;28.70
418;DHT22;49;48.530;9.200;2022-09-03T03:18:11;23.60;28.00
418;DHT22;49;48.530;9.200;2022-09-03T03:20:39;23.40;28.90
418;DHT22;49;48.530;9.200;2022-09-03T03:23:08;23.20;29.90
418;DHT22;49;48.530;9.200;2022-09-03T03:25:36;23.10;30.40
418;DHT22;49;48.530;9.200;2022-09-03T03:28:04;23.20;30.10
418;DHT22;49;48.530;9.200;2022-09-03T03:30:32;23.30;30.00
418;DHT22;49;48.530;9.200;2022-09-03T03:32:59;23.40;29.30
418;DHT22;49;48.530;9.200;2022-09-03T03:35:26;23.50;29.40
418;DHT22;49;48.530;9.200;2022-09-03T03:37:56;23.60;29.50
418;DHT22;49;48.530;9.200;2022-09-03T03:40:24;23.60;29.60
418;DHT22;49;48.530;9.200;2022-09-03T03:42:53;23.60;29.30
418;DHT22;49;48.530;9.200;2022-09-03T03:45:20;23.60;29.00
418;DHT22;49;48.530;9.200;2022-09-03T03:47:47;23.30;28.90
418;DHT22;49;48.530;9.200;2022-09-03T03:50:17;22.80;31.10
418;DHT22;49;48.530;9.200;2022-09-03T03:52:44;22.60;30.50
418;DHT22;49;48.530;9.200;2022-09-03T03:55:11;22.70;31.40
418;DHT22;49;48.530;9.200;2022-09-03T03:57:40;22.90;31.20
418;DHT22;49;48.530;9.200;2022-09-03T04:00:08;23.00;30.60
418;DHT22;49;48.530;9.200;2022-09-03T04:02:35;23.00;30.00
418;DHT22;49;48.530;9.200;2022-09-03T04:05:02;23.00;30.90
418;DHT22;49;48.530;9.200;2022-09-03T04:07:29;23.10;30.20
418;DHT22;49;48.530;9.200;2022-09-03T04:09:56;23.00;31.60
418;DHT22;49;48.530;9.200;2022-09-03T04:12:23;22.80;32.30
418;DHT22;49;48.530;9.200;2022-09-03T04:14:55;22.60;32.10
418;DHT22;49;48.530;9.200;2022-09-03T04:17:22;22.50;32.40
418;DHT22;49;48.530;9.200;2022-09-03T04:19:49;22.50;32.40
418;DHT22;49;48.530;9.200;2022-09-03T04:22:32;22.60;32.50
418;DHT22;49;48.530;9.200;2022-09-03T04:25:02;22.90;32.30
418;DHT22;49;48.530;9.200;2022-09-03T04:27:32;23.00;31.30
418;DHT22;49;48.530;9.200;2022-09-03T04:30:00;23.10;31.50
418;DHT22;49;48.530;9.200;2022-09-03T04:32:28;23.20;31.50
418;DHT22;49;48.530;9.200;2022-09-03T04:35:12;23.10;31.70
418;DHT22;49;48.530;9.200;2022-09-03T04:37:42;22.70;32.90
418;DHT22;49;48.530;9.200;2022-09-03T04:40:09;22.80;32.60
418;DHT22;49;48.530;9.200;2022-09-03T04:42:40;23.00;32.50
418;DHT22;49;48.530;9.200;2022-09-03T04:45:09;23.00;32.30
418;DHT22;49;48.530;9.200;2022-09-03T04:47:40;23.00;32.50
418;DHT22;49;48.530;9.200;2022-09-03T04:50:08;23.00;32.50
418;DHT22;49;48.530;9.200;2022-09-03T04:52:35;23.00;32.50
418;DHT22;49;48.530;9.200;2022-09-03T04:55:03;23.00;32.50
418;DHT22;49;48.530;9.200;2022-09-03T04:57:32;23.00;32.50
418;DHT22;49;48.530;9.200;2022-09-03T05:00:03;23.10;32.40
418;DHT22;49;48.530;9.200;2022-09-03T05:02:33;23.20;32.40
418;DHT22;49;48.530;9.200;2022-09-03T05:05:03;23.30;32.20
418;DHT22;49;48.530;9.200;2022-09-03T05:07:30;23.40;31.50
418;DHT22;49;48.530;9.200;2022-09-03T05:10:04;23.50;31.30
418;DHT22;49;48.530;9.200;2022-09-03T05:12:32;23.40;31.90
418;DHT22;49;48.530;9.200;2022-09-03T05:14:59;23.30;32.20
418;DHT22;49;48.530;9.200;2022-09-03T05:17:28;23.40;32.10
418;DHT22;49;48.530;9.200;2022-09-03T05:19:57;23.10;32.60
418;DHT22;49;48.530;9.200;2022-09-03T05:22:26;22.40;35.10
418;DHT22;49;48.530;9.200;2022-09-03T05:24:56;21.80;37.80
418;DHT22;49;48.530;9.200;2022-09-03T05:27:23;21.30;40.10
418;DHT22;49;48.530;9.200;2022-09-03T05:29:50;20.80;43.40
418;DHT22;49;48.530;9.200;2022-09-03T05:32:17;20.60;44.00
418;DHT22;49;48.530;9.200;2022-09-03T05:34:44;20.70;42.80
418;DHT22;49;48.530;9.200;2022-09-03T05:37:12;20.60;43.60
418;DHT22;49;48.530;9.200;2022-09-03T05:39:39;20.80;42.60
418;DHT22;49;48.530;9.200;2022-09-03T05:42:06;21.00;42.40
418;DHT22;49;48.530;9.200;2022-09-03T05:44:33;21.10;40.80
418;DHT22;49;48.530;9.200;2022-09-03T05:47:03;21.10;41.50
418;DHT22;49;48.530;9.200;2022-09-03T05:49:30;21.20;41.60
418;DHT22;49;48.530;9.200;2022-09-03T05:51:57;21.00;42.50
418;DHT22;49;48.530;9.200;2022-09-03T05:54:26;21.00;42.50
418;DHT22;49;48.530;9.200;2022-09-03T05:56:55;21.30;41.30
418;DHT22;49;48.530;9.200;2022-09-03T05:59:25;21.90;39.20
418;DHT22;49;48.530;9.200;2022-09-03T06:01:53;22.60;36.70
418;DHT22;49;48.530;9.200;2022-09-03T06:04:22;23.10;35.10
418;DHT22;49;48.530;9.200;2022-09-03T06:06:49;23.40;33.10
418;DHT22;49;48.530;9.200;2022-09-03T06:09:19;23.60;33.00
418;DHT22;49;48.530;9.200;2022-09-03T06:11:51;23.80;33.60
418;DHT22;49;48.530;9.200;2022-09-03T06:14:18;23.80;33.00
418;DHT22;49;48.530;9.200;2022-09-03T06:16:47;23.80;33.20
418;DHT22;49;48.530;9.200;2022-09-03T06:19:14;24.00;32.40
418;DHT22;49;48.530;9.200;2022-09-03T06:21:43;24.10;32.50
418;DHT22;49;48.530;9.200;2022-09-03T06:24:14;24.00;33.20
418;DHT22;49;48.530;9.200;2022-09-03T06:26:42;24.00;33.40
418;DHT22;49;48.530;9.200;2022-09-03T06:29:13;24.10;32.40
418;DHT22;49;48.530;9.200;2022-09-03T06:31:43;24.10;32.40
418;DHT22;49;48.530;9.200;2022-09-03T06:34:15;24.30;32.00
418;DHT22;49;48.530;9.200;2022-09-03T06:36:43;24.30;32.00
418;DHT22;49;48.530;9.200;2022-09-03T06:39:12;24.40;31.90
418;DHT22;49;48.530;9.200;2022-09-03T06:41:39;24.60;31.50
418;DHT22;49;48.530;9.200;2022-09-03T06:44:07;24.80;31.10
418;DHT22;49;48.530;9.200;2022-09-03T06:46:40;24.90;30.40
418;DHT22;49;48.530;9.200;2022-09-03T06:49:08;24.90;30.40
418;DHT22;49;48.530;9.200;2022-09-03T06:51:36;24.90;30.80
418;DHT22;49;48.530;9.200;2022-09-03T06:54:04;24.80;31.90
418;DHT22;49;48.530;9.200;2022-09-03T06:56:33;24.80;32.40
418;DHT22;49;48.530;9.200;2022-09-03T06:59:04;25.00;32.10
418;DHT22;49;48.530;9.200;2022-09-03T07:01:34;25.20;30.80
418;DHT22;49;48.530;9.200;2022-09-03T07:04:04;25.20;31.20
418;DHT22;49;48.530;9.200;2022-09-03T07:06:33;25.20;31.40
418;DHT22;49;48.530;9.200;2022-09-03T07:09:03;24.90;32.40
418;DHT22;49;48.530;9.200;2022-09-03T07:11:30;24.20;34.00
418;DHT22;49;48.530;9.200;2022-09-03T07:13:59;24.50;34.40
418;DHT22;49;48.530;9.200;2022-09-03T07:16:30;24.60;33.90
418;DHT22;49;48.530;9.200;2022-09-03T07:19:00;24.80;33.60
418;DHT22;49;48.530;9.200;2022-09-03T07:21:33;24.90;31.90
418;DHT22;49;48.530;9.200;2022-09-03T07:24:02;24.80;33.80
418;DHT22;49;48.530;9.200;2022-09-03T07:26:35;24.40;33.80
418;DHT22;49;48.530;9.200;2022-09-03T07:29:05;24.60;31.90
418;DHT22;49;48.530;9.200;2022-09-03T07:31:38;24.80;32.60
418;DHT22;49;48.530;9.200;2022-09-03T07:34:06;24.80;32.30
418;DHT22;49;48.530;9.200;2022-09-03T07:36:37;24.90;34.00
418;DHT22;49;48.530;9.200;2022-09-03T07:39:06;24.80;34.10
418;DHT22;49;48.530;9.200;2022-09-03T07:41:36;24.70;34.30
418;DHT22;49;48.530;9.200;2022-09-03T07:44:03;24.10;36.50
418;DHT22;49;48.530;9.200;2022-09-03T07:46:33;23.90;38.20
418;DHT22;49;48.530;9.200;2022-09-03T07:49:02;24.00;37.70
418;DHT22;49;48.530;9.200;2022-09-03T07:51:31;24.20;36.70
418;DHT22;49;48.530;9.200;2022-09-03T07:54:01;24.40;35.30
418;DHT22;49;48.530;9.200;2022-09-03T07:56:29;24.50;33.90
418;DHT22;49;48.530;9.200;2022-09-03T07:59:00;24.60;32.30
418;DHT22;49;48.530;9.200;2022-09-03T08:01:28;24.80;32.10
418;DHT22;49;48.530;9.200;2022-09-03T08:04:00;24.70;32.80
418;DHT22;49;48.530;9.200;2022-09-03T08:06:29;24.90;32.20
418;DHT22;49;48.530;9.200;2022-09-03T08:09:00;25.00;32.60
418;DHT22;49;48.530;9.200;2022-09-03T08:11:28;25.10;31.50
418;DHT22;49;48.530;9.200;2022-09-03T08:13:57;25.00;31.20
418;DHT22;49;48.530;9.200;2022-09-03T08:16:29;25.30;30.60
418;DHT22;49;48.530;9.200;2022-09-03T08:18:56;25.70;30.20
418;DHT22;49;48.530;9.200;2022-09-03T08:21:24;25.30;29.70
418;DHT22;49;48.530;9.200;2022-09-03T08:23:55;24.90;30.20
418;DHT22;49;48.530;9.200;2022-09-03T08:26:29;25.30;29.90
418;DHT22;49;48.530;9.200;2022-09-03T08:29:00;25.70;28.50
418;DHT22;49;48.530;9.200;2022-09-03T08:31:29;26.00;28.50
418;DHT22;49;48.530;9.200;2022-09-03T08:33:59;26.30;27.10
418;DHT22;49;48.530;9.200;2022-09-03T08:36:32;26.10;28.10
418;DHT22;49;48.530;9.200;2022-09-03T08:39:03;26.20;27.70
418;DHT22;49;48.530;9.200;2022-09-03T08:41:41;25.80;28.60
418;DHT22;49;48.530;9.200;2022-09-03T08:44:22;26.40;28.30
418;DHT22;49;48.530;9.200;2022-09-03T08:46:53;26.90;26.40
418;DHT22;49;48.530;9.200;2022-09-03T08:49:24;26.60;27.00
418;DHT22;49;48.530;9.200;2022-09-03T08:51:54;26.80;26.70
418;DHT22;49;48.530;9.200;2022-09-03T08:54:26;26.60;26.60
418;DHT22;49;48.530;9.200;2022-09-03T08:57:01;26.10;28.10
418;DHT22;49;48.530;9.200;2022-09-03T08:59:29;26.30;27.40
418;DHT22;49;48.530;9.200;2022-09-03T09:02:04;26.70;27.40
418;DHT22;49;48.530;9.200;2022-09-03T09:04:43;27.60;25.90
418;DHT22;49;48.530;9.200;2022-09-03T09:07:17;27.60;25.00
418;DHT22;49;48.530;9.200;2022-09-03T09:09:52;28.20;25.60
418;DHT22;49;48.530;9.200;2022-09-03T09:12:32;29.20;23.00
418;DHT22;49;48.530;9.200;2022-09-03T09:15:07;28.80;23.20
418;DHT22;49;48.530;9.200;2022-09-03T09:17:48;28.80;23.20
418;DHT22;49;48.530;9.200;2022-09-03T09:20:22;28.60;22.80
418;DHT22;49;48.530;9.200;2022-09-03T09:22:54;28.30;24.30
418;DHT22;49;48.530;9.200;2022-09-03T09:25:24;28.60;23.20
418;DHT22;49;48.530;9.200;2022-09-03T09:27:57;28.10;24.10
418;DHT22;49;48.530;9.200;2022-09-03T09:30:26;28.10;23.40
418;DHT22;49;48.530;9.200;2022-09-03T09:32:53;28.30;23.40
418;DHT22;49;48.530;9.200;2022-09-03T09:35:25;28.60;23.40
418;DHT22;49;48.530;9.200;2022-09-03T09:37:53;28.70;21.90
418;DHT22;49;48.530;9.200;2022-09-03T09:40:29;28.60;23.00
418;DHT22;49;48.530;9.200;2022-09-03T09:43:05;28.80;22.10
418;DHT22;49;48.530;9.200;2022-09-03T09:45:32;28.90;23.10
418;DHT22;49;48.530;9.200;2022-09-03T09:48:00;28.80;22.50
418;DHT22;49;48.530;9.200;2022-09-03T09:50:28;28.90;22.20
418;DHT22;49;48.530;9.200;2022-09-03T09:52:59;28.90;22.70
418;DHT22;49;48.530;9.200;2022-09-03T09:55:33;28.60;22.80
418;DHT22;49;48.530;9.200;2022-09-03T09:58:07;28.50;23.40
418;DHT22;49;48.530;9.200;2022-09-03T10:00:35;29.00;22.80
418;DHT22;49;48.530;9.200;2022-09-03T10:03:10;29.00;22.20
418;DHT22;49;48.530;9.200;2022-09-03T10:05:39;29.20;21.90
418;DHT22;49;48.530;9.200;2022-09-03T10:08:18;29.30;21.80
418;DHT22;49;48.530;9.200;2022-09-03T10:10:48;29.20;22.40
418;DHT22;49;48.530;9.200;2022-09-03T10:13:20;29.60;21.70
418;DHT22;49;48.530;9.200;2022-09-03T10:15:50;29.40;21.20
418;DHT22;49;48.530;9.200;2022-09-03T10:18:26;29.20;21.70
418;DHT22;49;48.530;9.200;2022-09-03T10:20:59;29.40;21.10
418;DHT22;49;48.530;9.200;2022-09-03T10:23:34;29.60;21.40
418;DHT22;49;48.530;9.200;2022-09-03T10:26:07;29.90;20.90
418;DHT22;49;48.530;9.200;2022-09-03T10:28:37;29.50;21.70
418;DHT22;49;48.530;9.200;2022-09-03T10:31:25;29.20;22.60
418;DHT22;49;48.530;9.200;2022-09-03T10:34:00;28.70;23.50
418;DHT22;49;48.530;9.200;2022-09-03T10:36:33;29.00;22.30
418;DHT22;49;48.530;9.200;2022-09-03T10:39:05;29.00;23.00
418;DHT22;49;48.530;9.200;2022-09-03T10:41:45;29.10;22.30
418;DHT22;49;48.530;9.200;2022-09-03T10:44:31;29.40;21.40
418;DHT22;49;48.530;9.200;2022-09-03T10:47:10;29.30;21.40
418;DHT22;49;48.530;9.200;2022-09-03T10:49:49;29.60;21.90
418;DHT22;49;48.530;9.200;2022-09-03T10:52:26;29.60;21.70
418;DHT22;49;48.530;9.200;2022-09-03T10:55:13;29.20;22.70
418;DHT22;49;48.530;9.200;2022-09-03T10:57:47;28.50;22.70
418;DHT22;49;48.530;9.200;2022-09-03T11:00:16;28.60;23.20
418;DHT22;49;48.530;9.200;2022-09-03T11:05:59;29.10;22.60
418;DHT22;49;48.530;9.200;2022-09-03T11:08:30;28.70;23.50
418;DHT22;49;48.530;9.200;2022-09-03T11:11:05;28.80;23.20
418;DHT22;49;48.530;9.200;2022-09-03T11:13:38;29.10;22.90
418;DHT22;49;48.530;9.200;2022-09-03T11:16:11;29.10;22.20
418;DHT22;49;48.530;9.200;2022-09-03T11:18:43;29.50;21.70
418;DHT22;49;48.530;9.200;2022-09-03T11:21:14;29.70;21.70
418;DHT22;49;48.530;9.200;2022-09-03T11:23:46;29.70;21.50
418;DHT22;49;48.530;9.200;2022-09-03T11:26:18;29.50;21.80
418;DHT22;49;48.530;9.200;2022-09-03T11:28:54;29.40;22.20
418;DHT22;49;48.530;9.200;2022-09-03T11:31:32;29.30;22.60
418;DHT22;49;48.530;9.200;2022-09-03T11:34:05;29.10;23.20
418;DHT22;49;48.530;9.200;2022-09-03T11:36:34;29.00;25.90
418;DHT22;49;48.530;9.200;2022-09-03T11:39:12;28.80;26.30
418;DHT22;49;48.530;9.200;2022-09-03T11:41:41;28.30;29.30
418;DHT22;49;48.530;9.200;2022-09-03T11:44:16;28.10;29.20
418;DHT22;49;48.530;9.200;2022-09-03T11:46:54;27.80;30.20
418;DHT22;49;48.530;9.200;2022-09-03T11:49:28;27.30;29.90
418;DHT22;49;48.530;9.200;2022-09-03T11:51:58;24.60;41.40
418;DHT22;49;48.530;9.200;2022-09-03T11:54:26;22.20;57.20
418;DHT22;49;48.530;9.200;2022-09-03T11:57:06;21.50;75.20
418;DHT22;49;48.530;9.200;2022-09-03T11:59:36;21.30;77.30
418;DHT22;49;48.530;9.200;2022-09-03T12:02:13;21.00;83.10
418;DHT22;49;48.530;9.200;2022-09-03T12:04:45;21.50;81.60
418;DHT22;49;48.530;9.200;2022-09-03T12:07:39;21.60;79.40
418;DHT22;49;48.530;9.200;2022-09-03T12:10:25;21.40;79.10
418;DHT22;49;48.530;9.200;2022-09-03T12:13:00;21.80;77.90
418;DHT22;49;48.530;9.200;2022-09-03T12:15:46;21.80;76.00
418;DHT22;49;48.530;9.200;2022-09-03T12:18:21;22.00;74.80
418;DHT22;49;48.530;9.200;2022-09-03T12:21:01;22.20;69.20
418;DHT22;49;48.530;9.200;2022-09-03T12:23:31;22.10;71.80
418;DHT22;49;48.530;9.200;2022-09-03T12:26:01;22.10;70.30
418;DHT22;49;48.530;9.200;2022-09-03T12:28:30;22.30;70.40
418;DHT22;49;48.530;9.200;2022-09-03T12:31:09;22.10;71.90
418;DHT22;49;48.530;9.200;2022-09-03T12:33:46;21.80;74.70
418;DHT22;49;48.530;9.200;2022-09-03T12:36:14;22.40;73.10
418;DHT22;49;48.530;9.200;2022-09-03T12:38:41;22.80;71.70
418;DHT22;49;48.530;9.200;2022-09-03T12:41:23;22.60;71.70
418;DHT22;49;48.530;9.200;2022-09-03T12:43:53;22.70;70.70
418;DHT22;49;48.530;9.200;2022-09-03T12:46:25;23.10;68.00
418;DHT22;49;48.530;9.200;2022-09-03T12:48:55;23.10;67.10
418;DHT22;49;48.530;9.200;2022-09-03T12:51:24;23.30;63.60
418;DHT22;49;48.530;9.200;2022-09-03T12:53:54;23.50;62.80
418;DHT22;49;48.530;9.200;2022-09-03T12:56:21;23.50;63.20
418;DHT22;49;48.530;9.200;2022-09-03T12:58:53;23.30;64.70
418;DHT22;49;48.530;9.200;2022-09-03T13:01:26;22.50;70.00
418;DHT22;49;48.530;9.200;2022-09-03T13:04:02;22.00;75.20
418;DHT22;49;48.530;9.200;2022-09-03T13:06:33;21.90;75.90
418;DHT22;49;48.530;9.200;2022-09-03T13:09:07;21.90;77.20
418;DHT22;49;48.530;9.200;2022-09-03T13:11:35;22.20;74.60
418;DHT22;49;48.530;9.200;2022-09-03T13:14:05;22.50;74.80
418;DHT22;49;48.530;9.200;2022-09-03T13:17:06;22.70;75.00
418;DHT22;49;48.530;9.200;2022-09-03T13:19:49;22.70;75.00
418;DHT22;49;48.530;9.200;2022-09-03T13:22:28;22.80;74.90
418;DHT22;49;48.530;9.200;2022-09-03T13:25:11;23.20;72.40
418;DHT22;49;48.530;9.200;2022-09-03T13:27:44;23.10;72.40
418;DHT22;49;48.530;9.200;2022-09-03T13:30:19;23.30;73.40
418;DHT22;49;48.530;9.200;2022-09-03T13:32:54;23.40;73.30
418;DHT22;49;48.530;9.200;2022-09-03T13:35:35;23.40;71.40
418;DHT22;49;48.530;9.200;2022-09-03T13:38:12;23.30;71.40
418;DHT22;49;48.530;9.200;2022-09-03T13:40:43;23.30;72.80
418;DHT22;49;48.530;9.200;2022-09-03T13:43:28;23.70;69.10
418;DHT22;49;48.530;9.200;2022-09-03T13:45:59;23.60;67.80
418;DHT22;49;48.530;9.200;2022-09-03T13:48:29;23.60;69.50
418;DHT22;49;48.530;9.200;2022-09-03T13:51:22;23.20;67.00
418;DHT22;49;48.530;9.200;2022-09-03T13:54:02;23.50;68.90
418;DHT22;49;48.530;9.200;2022-09-03T13:56:48;23.70;68.50
418;DHT22;49;48.530;9.200;2022-09-03T13:59:22;24.00;65.50
418;DHT22;49;48.530;9.200;2022-09-03T14:02:01;23.60;65.00
418;DHT22;49;48.530;9.200;2022-09-03T14:04:41;23.40;65.80
418;DHT22;49;48.530;9.200;2022-09-03T14:07:16;23.50;69.50
418;DHT22;49;48.530;9.200;2022-09-03T14:09:55;23.80;62.10
418;DHT22;49;48.530;9.200;2022-09-03T14:12:34;24.00;64.30
418;DHT22;49;48.530;9.200;2022-09-03T14:15:09;24.50;60.70
418;DHT22;49;48.530;9.200;2022-09-03T14:17:44;24.90;58.10
418;DHT22;49;48.530;9.200;2022-09-03T14:20:17;24.80;54.50
418;DHT22;49;48.530;9.200;2022-09-03T14:22:52;25.40;55.10
418;DHT22;49;48.530;9.200;2022-09-03T14:25:24;25.40;52.00
418;DHT22;49;48.530;9.200;2022-09-03T14:27:51;25.80;51.30
418;DHT22;49;48.530;9.200;2022-09-03T14:30:28;26.30;49.10
418;DHT22;49;48.530;9.200;2022-09-03T14:33:04;26.30;47.60
418;DHT22;49;48.530;9.200;2022-09-03T14:35:41;26.60;46.50
418;DHT22;49;48.530;9.200;2022-09-03T14:38:39;26.70;41.50
418;DHT22;49;48.530;9.200;2022-09-03T14:41:27;25.70;46.00
418;DHT22;49;48.530;9.200;2022-09-03T14:47:00;25.00;50.80
418;DHT22;49;48.530;9.200;2022-09-03T14:49:43;25.70;45.60
418;DHT22;49;48.530;9.200;2022-09-03T14:52:27;26.20;45.10
418;DHT22;49;48.530;9.200;2022-09-03T14:55:14;26.70;44.80
418;DHT22;49;48.530;9.200;2022-09-03T14:58:17;26.60;40.70
418;DHT22;49;48.530;9.200;2022-09-03T15:00:51;25.80;45.60
418;DHT22;49;48.530;9.200;2022-09-03T15:03:46;25.60;46.50
418;DHT22;49;48.530;9.200;2022-09-03T15:06:39;24.80;52.90
418;DHT22;49;48.530;9.200;2022-09-03T15:09:21;24.90;52.10
418;DHT22;49;48.530;9.200;2022-09-03T15:11:55;25.20;49.20
418;DHT22;49;48.530;9.200;2022-09-03T15:14:27;24.90;53.30
418;DHT22;49;48.530;9.200;2022-09-03T15:17:00;25.20;52.00
418;DHT22;49;48.530;9.200;2022-09-03T15:19:48;25.70;49.50
418;DHT22;49;48.530;9.200;2022-09-03T15:22:33;25.50;48.70
418;DHT22;49;48.530;9.200;2022-09-03T15:25:10;24.80;52.60
418;DHT22;49;48.530;9.200;2022-09-03T15:28:00;25.30;52.30
418;DHT22;49;48.530;9.200;2022-09-03T15:30:34;26.30;47.20
418;DHT22;49;48.530;9.200;2022-09-03T15:33:12;26.50;42.60
418;DHT22;49;48.530;9.200;2022-09-03T15:36:02;26.70;41.10
418;DHT22;49;48.530;9.200;2022-09-03T15:38:41;25.70;43.20
418;DHT22;49;48.530;9.200;2022-09-03T15:41:19;25.80;44.50
418;DHT22;49;48.530;9.200;2022-09-03T15:43:50;26.30;43.80
418;DHT22;49;48.530;9.200;2022-09-03T15:46:36;26.70;40.50
418;DHT22;49;48.530;9.200;2022-09-03T15:49:07;26.90;39.90
418;DHT22;49;48.530;9.200;2022-09-03T15:51:45;26.90;40.20
418;DHT22;49;48.530;9.200;2022-09-03T15:54:18;26.80;40.60
418;DHT22;49;48.530;9.200;2022-09-03T15:56:57;26.30;43.40
418;DHT22;49;48.530;9.200;2022-09-03T15:59:37;26.30;42.70
418;DHT22;49;48.530;9.200;2022-09-03T16:02:08;26.50;42.10
418;DHT22;49;48.530;9.200;2022-09-03T16:04:49;26.40;40.70
418;DHT22;49;48.530;9.200;2022-09-03T16:07:23;26.50;40.10
418;DHT22;49;48.530;9.200;2022-09-03T16:09:58;26.80;40.00
418;DHT22;49;48.530;9.200;2022-09-03T16:12:32;27.00;39.00
418;DHT22;49;48.530;9.200;2022-09-03T16:15:05;27.10;38.30
418;DHT22;49;48.530;9.200;2022-09-03T16:17:36;27.20;37.60
418;DHT22;49;48.530;9.200;2022-09-03T16:20:07;27.10;37.20
418;DHT22;49;48.530;9.200;2022-09-03T16:22:42;27.00;37.30
418;DHT22;49;48.530;9.200;2022-09-03T16:25:14;27.00;37.10
418;DHT22;49;48.530;9.200;2022-09-03T16:27:51;27.00;37.90
418;DHT22;49;48.530;9.200;2022-09-03T16:30:34;27.20;37.00
418;DHT22;49;48.530;9.200;2022-09-03T16:33:11;27.10;36.80
418;DHT22;49;48.530;9.200;2022-09-03T16:35:45;26.70;38.00
418;DHT22;49;48.530;9.200;2022-09-03T16:38:23;26.40;38.70
418;DHT22;49;48.530;9.200;2022-09-03T16:40:57;26.50;38.60
418;DHT22;49;48.530;9.200;2022-09-03T16:43:32;26.60;37.60
418;DHT22;49;48.530;9.200;2022-09-03T16:46:12;26.70;37.50
418;DHT22;49;48.530;9.200;2022-09-03T16:48:48;26.70;37.90
418;DHT22;49;48.530;9.200;2022-09-03T16:51:24;26.50;38.70
418;DHT22;49;48.530;9.200;2022-09-03T16:54:09;26.20;39.50
418;DHT22;49;48.530;9.200;2022-09-03T16:56:45;26.00;41.20
418;DHT22;49;48.530;9.200;2022-09-03T16:59:32;26.00;42.70
418;DHT22;49;48.530;9.200;2022-09-03T17:02:16;25.40;46.60
418;DHT22;49;48.530;9.200;2022-09-03T17:04:59;25.40;47.80
418;DHT22;49;48.530;9.200;2022-09-03T17:07:41;25.30;48.10
418;DHT22;49;48.530;9.200;2022-09-03T17:10:19;24.80;50.80
418;DHT22;49;48.530;9.200;2022-09-03T17:12:53;25.20;48.80
418;DHT22;49;48.530;9.200;2022-09-03T17:15:33;25.40;46.30
418;DHT22;49;48.530;9.200;2022-09-03T17:18:18;25.80;46.00
418;DHT22;49;48.530;9.200;2022-09-03T17:20:56;25.80;45.90
418;DHT22;49;48.530;9.200;2022-09-03T17:23:57;25.90;46.10
418;DHT22;49;48.530;9.200;2022-09-03T17:26:33;25.90;46.10
418;DHT22;49;48.530;9.200;2022-09-03T17:29:15;25.90;46.10
418;DHT22;49;48.530;9.200;2022-09-03T17:31:54;25.80;46.80
418;DHT22;49;48.530;9.200;2022-09-03T17:34:42;25.70;47.80
418;DHT22;49;48.530;9.200;2022-09-03T17:37:21;25.80;48.10
418;DHT22;49;48.530;9.200;2022-09-03T17:40:00;25.70;49.40
418;DHT22;49;48.530;9.200;2022-09-03T17:42:35;25.70;46.90